sensor_id;sensor_type;location;lat;lon;timestamp;pressure;altitude;pressure_sealevel;temperature;humidity
47712;BME280;57457;51.634;5.886;2023-06-14T00:25:58;101100;;;16.9;64.9
47712;BME280;57457;51.634;5.886;2023-06-14T00:58:52;101100;;;16.5;62.2
47712;BME280;57457;51.634;5.886;2023-06-14T02:12:12;101100;;;16.1;64.8
47712;BME280;57457;51.634;5.886;2023-06-14T02:34:01;101200;;;15.7;65.1
47712;BME280;57457;51.634;5.886;2023-06-14T02:53:02;101200;;;15.4;68.6
47712;BME280;57457;51.634;5.886;2023-06-14T03:10:23;101200;;;15.0;70.3
47712;BME280;57457;51.634;5.886;2023-06-14T03:27:59;101200;;;14.6;70.6
47712;BME280;57457;51.634;5.886;2023-06-14T03:59:09;101200;;;14.3;73.1
47712;BME280;57457;51.634;5.886;2023-06-14T05:52:19;101300;;;18.4;59.0
47712;BME280;57457;51.634;5.886;2023-06-14T06:10:03;101300;;;18.5;57.4
47712;BME280;57457;51.634;5.886;2023-06-14T06:39:50;101300;;;18.8;55.9
47712;BME280;57457;51.634;5.886;2023-06-14T07:10:51;101300;;;19.4;53.1
47712;BME280;57457;51.634;5.886;2023-06-14T07:27:38;101300;;;20.2;52.5
47712;BME280;57457;51.634;5.886;2023-06-14T07:47:58;101400;;;20.7;53.7
47712;BME280;57457;51.634;5.886;2023-06-14T08:21:36;101400;;;21.0;48.2
47712;BME280;57457;51.634;5.886;2023-06-14T08:53:11;101400;;;21.4;45.1
47712;BME280;57457;51.634;5.886;2023-06-14T09:44:30;101400;;;23.8;36.9
47712;BME280;57457;51.634;5.886;2023-06-14T10:10:22;101400;;;25.1;35.6
47712;BME280;57457;51.634;5.886;2023-06-14T10:34:17;101400;;;25.9;37.6
47712;BME280;57457;51.634;5.886;2023-06-14T11:07:44;101400;;;26.7;35.9
47712;BME280;57457;51.634;5.886;2023-06-14T11:43:37;101400;;;26.8;34.7
47712;BME280;57457;51.634;5.886;2023-06-14T12:49:12;101400;;;28.0;33.2
47712;BME280;57457;51.634;5.886;2023-06-14T13:44:25;101400;;;29.1;35.1
47712;BME280;57457;51.634;5.886;2023-06-14T14:04:51;101400;;;29.0;32.4
47712;BME280;57457;51.634;5.886;2023-06-14T14:23:16;101400;;;29.1;33.0
47712;BME280;57457;51.634;5.886;2023-06-14T14:49:17;101400;;;29.3;31.6
47712;BME280;57457;51.634;5.886;2023-06-14T15:21:29;101400;;;29.9;30.7
47712;BME280;57457;51.634;5.886;2023-06-14T16:08:46;101400;;;31.0;28.5
47712;BME280;57457;51.634;5.886;2023-06-14T16:31:02;101400;;;31.3;29.1
47712;BME280;57457;51.634;5.886;2023-06-14T16:48:27;101400;;;31.2;29.7
47712;BME280;57457;51.634;5.886;2023-06-14T17:08:58;101400;;;30.8;37.3
47712;BME280;57457;51.634;5.886;2023-06-14T17:33:24;101400;;;29.2;36.9
47712;BME280;57457;51.634;5.886;2023-06-14T17:54:38;101400;;;27.6;40.1
47712;BME280;57457;51.634;5.886;2023-06-14T18:10:51;101400;;;26.3;41.1
47712;BME280;57457;51.634;5.886;2023-06-14T18:53:11;101400;;;24.7;44.1
47712;BME280;57457;51.634;5.886;2023-06-14T19:47:59;101400;;;23.4;50.5
47712;BME280;57457;51.634;5.886;2023-06-14T20:30:22;101500;;;22.6;58.3
47712;BME280;57457;51.634;5.886;2023-06-14T21:02:58;101500;;;21.1;61.8
47712;BME280;57457;51.634;5.886;2023-06-14T21:22:39;101500;;;19.9;62.9
47712;BME280;57457;51.634;5.886;2023-06-14T21:59:08;101500;;;19.1;66.4
47712;BME280;57457;51.634;5.886;2023-06-14T23:23:54;101500;;;16.1;71.4
